Redwood City, CA

5:30 PM PDT on August 21, 2014 (GMT -0700)
San Carlos | Change Station
CLOSE
Current Station
Airport
Location: San Carlos,
Elevation: 3 ft
Nearby Weather Stations

Elev 3 ft 37.51 °N, 122.25 °W | Updated 43 minutes ago

Clear
Clear
77 °F
Feels Like 77 °F
N
7
Wind Variable Wind from NW

Today
High -- | Low -- °F
--% Chance of Precip.
Yesterday
High -- | Low -- °F
Precip. -- in
6:30 AM 7:53 PM
Waning Crescent, 11% visible
Pressure 29.90 in
Visibility 10.0 miles
Clouds Clear
Dew Point 57 °F
Humidity 50%
Rainfall 0.00 in
Snow Depth Not available.
UV 4 out of 12
Pollen 5.90 out of 12
Air Quality Not available.
Flu Activity Not available.
METAR KSQL 212347Z 32006KT 10SM SKC 25/14 A2990

More Conditions Fewer Conditions

Pressure 29.90 in
Visibility 10.0 miles
Clouds Clear
Dew Point 57 °F
Humidity 50%
Rainfall 0.00 in
Snow Depth Not available.
UV 4 out of 12
Pollen 5.90 out of 12
Air Quality Not available.
Flu Activity Not available.
METAR KSQL 212347Z 32006KT 10SM SKC 25/14 A2990

More Conditions Fewer Conditions

10-Day Weather Forecast

Almanac

Astronomy

Aug. 21, 2014 Rise Set
Actual Time 6:30 AM PDT 7:53 PM PDT
Civil Twilight 6:02 AM PDT 8:20 PM PDT
Nautical Twilight 5:29 AM PDT 8:53 PM PDT
Astronomical Twilight 4:55 AM PDT 9:27 PM PDT
Moon 3:07 AM PDT (8/21) 5:24 PM PDT (8/21)
Length of Visible Light 14h 18m
Length of Day
13h 23m
Tomorrow will be 2m 11s shorter.
Waning Crescent, 11% of the Moon is Illuminated
Today
Waning Crescent
Aug 25
New
Sep 2
First Quarter
Sep 8
Full
Sep 15
Last Quarter

Today's Extremes

State Highs State Lows

Community

WunderPhotos

Upload Photos

1,746,073 photos uploaded!

Nearby

Air Quality

  Air Quality AQ Index Pollutant
Yesterday Good
OZONE
Yesterday Good
PM2.5
Thursday Good
OZONE
Friday Good
OZONE
Saturday Good
OZONE
Sunday Good
OZONE
Monday Good
OZONE
Tuesday Good
OZONE

Snow Depth

Station Depth Elevation
Leavitt Meadows 0 in 7200 ft
Summit Meadow 0 in 9122 ft
Tahoe City Cross 0 in 6750 ft
CSS Lab 3 in 6900 ft
Adin Mountain 0 in 6200 ft

Earthquake Activity

City Distance Mag. Time & Date
Berkeley, California 24 miles 2.6 7:41 PM PDT
2014-08-16
King City, California 113 miles 2.7 10:26 PM PDT
2014-08-15
King City, California 113 miles 2.9 8:01 PM PDT
2014-08-14
Minimum magnitude displayed is 2.5.

Coastal Water Temperatures

Place Temperature
No Stations Reporting

Nearby Weather Stations